Navarino, New York
Current Conditions -  °F | °C
As of 6:54 PM on Monday 20 Oct 2014 (Local Time) from KSYR Reporting Station
Overcast Overcast  
Wind Chill: 54°   Ceiling: 6000
Heat Index: 54°   Visibility: 10mi
Dew Point: 40°   Wind: 5mph
Humidity: 60%   Direction: 120°ESE
Pressure: 29.88"   Gusts: NA
Location:  42.9723°N, 76.3331°W
Report Text: KSYR 202254Z 12004KT 10SM SCT032 OVC060 12/05 A2988 RMK RAB02E15 SLP116 T01200045
Loading
Personal Weather Stations






























Interactive Weather Map
Tropical Storm Tracking
New forecast layout! Learn more

10-Day Weather Forecast

Advertisements
Track Severe Weather on mobile